sensor_id;sensor_type;location;lat;lon;timestamp;temperature;humidity
65231;DHT22;51813;40.666;16.602;2022-07-09T00:02:16;24.80;54.20
65231;DHT22;51813;40.666;16.602;2022-07-09T00:04:42;24.70;54.30
65231;DHT22;51813;40.666;16.602;2022-07-09T00:07:08;24.60;54.50
65231;DHT22;51813;40.666;16.602;2022-07-09T00:09:33;24.60;54.60
65231;DHT22;51813;40.666;16.602;2022-07-09T00:11:59;24.70;54.50
65231;DHT22;51813;40.666;16.602;2022-07-09T00:14:25;24.70;54.20
65231;DHT22;51813;40.666;16.602;2022-07-09T00:16:51;24.70;54.20
65231;DHT22;51813;40.666;16.602;2022-07-09T00:19:16;24.70;54.10
65231;DHT22;51813;40.666;16.602;2022-07-09T00:21:42;24.80;54.10
65231;DHT22;51813;40.666;16.602;2022-07-09T00:24:08;24.80;54.10
65231;DHT22;51813;40.666;16.602;2022-07-09T00:26:34;24.70;54.00
65231;DHT22;51813;40.666;16.602;2022-07-09T00:29:00;24.70;54.00
65231;DHT22;51813;40.666;16.602;2022-07-09T00:31:26;24.70;54.00
65231;DHT22;51813;40.666;16.602;2022-07-09T00:33:51;24.70;54.20
65231;DHT22;51813;40.666;16.602;2022-07-09T00:36:18;24.70;54.00
65231;DHT22;51813;40.666;16.602;2022-07-09T00:38:44;24.70;54.10
65231;DHT22;51813;40.666;16.602;2022-07-09T00:41:09;24.70;54.10
65231;DHT22;51813;40.666;16.602;2022-07-09T00:43:35;24.80;53.70
65231;DHT22;51813;40.666;16.602;2022-07-09T00:46:01;24.80;53.80
65231;DHT22;51813;40.666;16.602;2022-07-09T00:48:26;24.80;53.70
65231;DHT22;51813;40.666;16.602;2022-07-09T00:50:53;24.80;53.90
65231;DHT22;51813;40.666;16.602;2022-07-09T00:53:22;24.80;54.00
65231;DHT22;51813;40.666;16.602;2022-07-09T00:55:50;24.80;54.00
65231;DHT22;51813;40.666;16.602;2022-07-09T00:58:18;24.80;53.80
65231;DHT22;51813;40.666;16.602;2022-07-09T01:00:45;24.80;53.90
65231;DHT22;51813;40.666;16.602;2022-07-09T01:03:11;24.80;53.80
65231;DHT22;51813;40.666;16.602;2022-07-09T01:05:36;24.80;53.70
65231;DHT22;51813;40.666;16.602;2022-07-09T01:08:06;24.90;53.80
65231;DHT22;51813;40.666;16.602;2022-07-09T01:10:34;24.90;53.60
65231;DHT22;51813;40.666;16.602;2022-07-09T01:13:00;24.90;53.50
65231;DHT22;51813;40.666;16.602;2022-07-09T01:15:27;24.90;53.60
65231;DHT22;51813;40.666;16.602;2022-07-09T01:17:53;24.80;53.80
65231;DHT22;51813;40.666;16.602;2022-07-09T01:20:24;24.80;53.80
65231;DHT22;51813;40.666;16.602;2022-07-09T01:22:50;24.80;53.90
65231;DHT22;51813;40.666;16.602;2022-07-09T01:25:18;24.80;53.80
65231;DHT22;51813;40.666;16.602;2022-07-09T01:27:44;24.80;53.80
65231;DHT22;51813;40.666;16.602;2022-07-09T01:30:11;24.80;53.60
65231;DHT22;51813;40.666;16.602;2022-07-09T01:32:37;24.80;53.70
65231;DHT22;51813;40.666;16.602;2022-07-09T01:35:03;24.90;53.30
65231;DHT22;51813;40.666;16.602;2022-07-09T01:37:29;24.80;53.40
65231;DHT22;51813;40.666;16.602;2022-07-09T01:39:54;24.80;53.40
65231;DHT22;51813;40.666;16.602;2022-07-09T01:42:20;24.90;53.30
65231;DHT22;51813;40.666;16.602;2022-07-09T01:44:47;24.90;53.30
65231;DHT22;51813;40.666;16.602;2022-07-09T01:47:14;24.80;53.30
65231;DHT22;51813;40.666;16.602;2022-07-09T01:49:42;24.80;53.60
65231;DHT22;51813;40.666;16.602;2022-07-09T01:52:09;24.90;53.50
65231;DHT22;51813;40.666;16.602;2022-07-09T01:54:35;24.80;53.30
65231;DHT22;51813;40.666;16.602;2022-07-09T01:57:00;24.80;53.50
65231;DHT22;51813;40.666;16.602;2022-07-09T01:59:26;24.90;53.50
65231;DHT22;51813;40.666;16.602;2022-07-09T02:01:52;24.90;53.50
65231;DHT22;51813;40.666;16.602;2022-07-09T02:04:17;24.90;53.50
65231;DHT22;51813;40.666;16.602;2022-07-09T02:06:43;24.90;53.60
65231;DHT22;51813;40.666;16.602;2022-07-09T02:09:09;24.90;53.60
65231;DHT22;51813;40.666;16.602;2022-07-09T02:11:34;24.90;53.60
65231;DHT22;51813;40.666;16.602;2022-07-09T02:14:00;24.90;53.40
65231;DHT22;51813;40.666;16.602;2022-07-09T02:16:26;24.80;53.60
65231;DHT22;51813;40.666;16.602;2022-07-09T02:18:52;24.80;53.80
65231;DHT22;51813;40.666;16.602;2022-07-09T02:21:17;24.80;53.80
65231;DHT22;51813;40.666;16.602;2022-07-09T02:23:44;24.90;53.70
65231;DHT22;51813;40.666;16.602;2022-07-09T02:26:10;24.90;53.40
65231;DHT22;51813;40.666;16.602;2022-07-09T02:28:36;25.00;53.40
65231;DHT22;51813;40.666;16.602;2022-07-09T02:31:02;25.10;53.60
65231;DHT22;51813;40.666;16.602;2022-07-09T02:33:28;25.00;53.50
65231;DHT22;51813;40.666;16.602;2022-07-09T02:35:56;25.10;53.50
65231;DHT22;51813;40.666;16.602;2022-07-09T02:38:21;25.00;53.60
65231;DHT22;51813;40.666;16.602;2022-07-09T02:40:47;25.00;53.90
65231;DHT22;51813;40.666;16.602;2022-07-09T02:43:13;24.90;54.00
65231;DHT22;51813;40.666;16.602;2022-07-09T02:45:39;24.90;53.90
65231;DHT22;51813;40.666;16.602;2022-07-09T02:48:05;24.90;54.00
65231;DHT22;51813;40.666;16.602;2022-07-09T02:50:31;24.90;54.00
65231;DHT22;51813;40.666;16.602;2022-07-09T02:52:56;24.90;54.20
65231;DHT22;51813;40.666;16.602;2022-07-09T02:55:22;24.80;54.20
65231;DHT22;51813;40.666;16.602;2022-07-09T02:57:48;24.80;54.50
65231;DHT22;51813;40.666;16.602;2022-07-09T03:00:14;24.90;54.40
65231;DHT22;51813;40.666;16.602;2022-07-09T03:02:40;24.80;54.60
65231;DHT22;51813;40.666;16.602;2022-07-09T03:05:06;24.80;54.70
65231;DHT22;51813;40.666;16.602;2022-07-09T03:07:32;24.80;54.80
65231;DHT22;51813;40.666;16.602;2022-07-09T03:09:57;24.70;55.00
65231;DHT22;51813;40.666;16.602;2022-07-09T03:12:23;24.80;54.70
65231;DHT22;51813;40.666;16.602;2022-07-09T03:14:49;24.80;54.70
65231;DHT22;51813;40.666;16.602;2022-07-09T03:17:14;24.90;54.40
65231;DHT22;51813;40.666;16.602;2022-07-09T03:19:40;24.80;54.30
65231;DHT22;51813;40.666;16.602;2022-07-09T03:22:06;24.80;54.70
65231;DHT22;51813;40.666;16.602;2022-07-09T03:24:31;24.80;54.50
65231;DHT22;51813;40.666;16.602;2022-07-09T03:26:57;24.80;54.50
65231;DHT22;51813;40.666;16.602;2022-07-09T03:29:23;24.80;54.50
65231;DHT22;51813;40.666;16.602;2022-07-09T03:31:49;24.80;54.60
65231;DHT22;51813;40.666;16.602;2022-07-09T03:34:14;24.80;54.60
65231;DHT22;51813;40.666;16.602;2022-07-09T03:36:40;24.80;54.70
65231;DHT22;51813;40.666;16.602;2022-07-09T03:39:06;24.80;54.50
65231;DHT22;51813;40.666;16.602;2022-07-09T03:41:32;24.80;54.50
65231;DHT22;51813;40.666;16.602;2022-07-09T03:43:58;24.80;55.00
65231;DHT22;51813;40.666;16.602;2022-07-09T03:46:24;24.80;54.20
65231;DHT22;51813;40.666;16.602;2022-07-09T03:48:50;24.90;54.10
65231;DHT22;51813;40.666;16.602;2022-07-09T03:51:16;24.90;54.10
65231;DHT22;51813;40.666;16.602;2022-07-09T03:53:42;24.90;54.00
65231;DHT22;51813;40.666;16.602;2022-07-09T03:56:07;24.80;54.20
65231;DHT22;51813;40.666;16.602;2022-07-09T03:58:33;24.70;54.30
65231;DHT22;51813;40.666;16.602;2022-07-09T04:00:59;24.70;54.10
65231;DHT22;51813;40.666;16.602;2022-07-09T04:03:25;24.60;54.40
65231;DHT22;51813;40.666;16.602;2022-07-09T04:05:50;24.60;54.60
65231;DHT22;51813;40.666;16.602;2022-07-09T04:08:16;24.60;54.30
65231;DHT22;51813;40.666;16.602;2022-07-09T04:10:42;24.70;54.20
65231;DHT22;51813;40.666;16.602;2022-07-09T04:13:07;24.70;54.00
65231;DHT22;51813;40.666;16.602;2022-07-09T04:15:33;24.60;54.30
65231;DHT22;51813;40.666;16.602;2022-07-09T04:17:59;24.50;54.40
65231;DHT22;51813;40.666;16.602;2022-07-09T04:20:25;24.50;54.50
65231;DHT22;51813;40.666;16.602;2022-07-09T04:22:51;24.50;54.40
65231;DHT22;51813;40.666;16.602;2022-07-09T04:25:18;24.50;54.30
65231;DHT22;51813;40.666;16.602;2022-07-09T04:27:44;24.50;54.20
65231;DHT22;51813;40.666;16.602;2022-07-09T04:30:10;24.50;54.50
65231;DHT22;51813;40.666;16.602;2022-07-09T04:32:37;24.50;54.40
65231;DHT22;51813;40.666;16.602;2022-07-09T04:35:03;24.50;54.40
65231;DHT22;51813;40.666;16.602;2022-07-09T04:37:29;24.40;54.50
65231;DHT22;51813;40.666;16.602;2022-07-09T04:39:55;24.50;54.50
65231;DHT22;51813;40.666;16.602;2022-07-09T04:42:20;24.40;54.50
65231;DHT22;51813;40.666;16.602;2022-07-09T04:44:46;24.50;54.80
65231;DHT22;51813;40.666;16.602;2022-07-09T04:47:12;24.50;54.70
65231;DHT22;51813;40.666;16.602;2022-07-09T04:49:38;24.40;54.70
65231;DHT22;51813;40.666;16.602;2022-07-09T04:52:05;24.40;54.90
65231;DHT22;51813;40.666;16.602;2022-07-09T04:54:31;24.40;55.20
65231;DHT22;51813;40.666;16.602;2022-07-09T04:56:56;24.40;55.00
65231;DHT22;51813;40.666;16.602;2022-07-09T04:59:22;24.40;54.90
65231;DHT22;51813;40.666;16.602;2022-07-09T05:01:48;24.40;54.90
65231;DHT22;51813;40.666;16.602;2022-07-09T05:04:15;24.50;55.00
65231;DHT22;51813;40.666;16.602;2022-07-09T05:06:41;24.50;55.10
65231;DHT22;51813;40.666;16.602;2022-07-09T05:09:07;24.40;55.10
65231;DHT22;51813;40.666;16.602;2022-07-09T05:11:33;24.30;55.60
65231;DHT22;51813;40.666;16.602;2022-07-09T05:13:59;24.30;55.90
65231;DHT22;51813;40.666;16.602;2022-07-09T05:16:25;24.30;55.90
65231;DHT22;51813;40.666;16.602;2022-07-09T05:18:51;24.40;55.90
65231;DHT22;51813;40.666;16.602;2022-07-09T05:21:16;24.40;55.50
65231;DHT22;51813;40.666;16.602;2022-07-09T05:23:42;24.50;55.40
65231;DHT22;51813;40.666;16.602;2022-07-09T05:26:08;24.60;55.20
65231;DHT22;51813;40.666;16.602;2022-07-09T05:28:33;24.70;55.00
65231;DHT22;51813;40.666;16.602;2022-07-09T05:30:59;24.80;54.80
65231;DHT22;51813;40.666;16.602;2022-07-09T05:33:25;24.80;54.90
65231;DHT22;51813;40.666;16.602;2022-07-09T05:35:51;24.70;55.10
65231;DHT22;51813;40.666;16.602;2022-07-09T05:38:17;24.70;55.30
65231;DHT22;51813;40.666;16.602;2022-07-09T05:40:43;24.70;55.40
65231;DHT22;51813;40.666;16.602;2022-07-09T05:43:09;24.60;55.60
65231;DHT22;51813;40.666;16.602;2022-07-09T05:45:34;24.60;55.80
65231;DHT22;51813;40.666;16.602;2022-07-09T05:48:00;24.70;55.40
65231;DHT22;51813;40.666;16.602;2022-07-09T05:50:26;24.70;55.50
65231;DHT22;51813;40.666;16.602;2022-07-09T05:52:51;24.70;55.40
65231;DHT22;51813;40.666;16.602;2022-07-09T05:55:17;24.80;55.60
65231;DHT22;51813;40.666;16.602;2022-07-09T05:57:43;24.70;55.80
65231;DHT22;51813;40.666;16.602;2022-07-09T06:00:09;24.70;56.20
65231;DHT22;51813;40.666;16.602;2022-07-09T06:02:35;24.50;56.50
65231;DHT22;51813;40.666;16.602;2022-07-09T06:05:00;24.50;57.00
65231;DHT22;51813;40.666;16.602;2022-07-09T06:07:26;24.40;57.10
65231;DHT22;51813;40.666;16.602;2022-07-09T06:09:52;24.50;57.10
65231;DHT22;51813;40.666;16.602;2022-07-09T06:12:17;24.50;57.00
65231;DHT22;51813;40.666;16.602;2022-07-09T06:14:43;24.40;57.10
65231;DHT22;51813;40.666;16.602;2022-07-09T06:17:09;24.40;57.30
65231;DHT22;51813;40.666;16.602;2022-07-09T06:19:35;24.40;57.20
65231;DHT22;51813;40.666;16.602;2022-07-09T06:22:01;24.40;57.20
65231;DHT22;51813;40.666;16.602;2022-07-09T06:24:27;24.50;57.20
65231;DHT22;51813;40.666;16.602;2022-07-09T06:26:53;24.40;57.50
65231;DHT22;51813;40.666;16.602;2022-07-09T06:29:19;24.40;57.70
65231;DHT22;51813;40.666;16.602;2022-07-09T06:31:45;24.40;57.90
65231;DHT22;51813;40.666;16.602;2022-07-09T06:34:11;24.20;58.60
65231;DHT22;51813;40.666;16.602;2022-07-09T06:36:38;24.30;58.80
65231;DHT22;51813;40.666;16.602;2022-07-09T06:39:04;24.30;58.90
65231;DHT22;51813;40.666;16.602;2022-07-09T06:41:48;24.30;58.90
65231;DHT22;51813;40.666;16.602;2022-07-09T06:44:14;24.30;58.90
65231;DHT22;51813;40.666;16.602;2022-07-09T06:46:39;24.30;59.00
65231;DHT22;51813;40.666;16.602;2022-07-09T06:49:06;24.30;58.90
65231;DHT22;51813;40.666;16.602;2022-07-09T06:51:32;24.40;58.80
65231;DHT22;51813;40.666;16.602;2022-07-09T06:53:58;24.40;58.80
65231;DHT22;51813;40.666;16.602;2022-07-09T06:56:23;24.40;58.80
65231;DHT22;51813;40.666;16.602;2022-07-09T06:58:49;24.30;58.80
65231;DHT22;51813;40.666;16.602;2022-07-09T07:01:15;24.30;59.40
65231;DHT22;51813;40.666;16.602;2022-07-09T07:03:41;24.40;59.30
65231;DHT22;51813;40.666;16.602;2022-07-09T07:06:07;24.40;58.90
65231;DHT22;51813;40.666;16.602;2022-07-09T07:08:33;24.50;58.90
65231;DHT22;51813;40.666;16.602;2022-07-09T07:10:59;24.50;58.60
65231;DHT22;51813;40.666;16.602;2022-07-09T07:13:25;24.60;58.60
65231;DHT22;51813;40.666;16.602;2022-07-09T07:15:51;24.50;58.60
65231;DHT22;51813;40.666;16.602;2022-07-09T07:18:17;24.50;58.60
65231;DHT22;51813;40.666;16.602;2022-07-09T07:20:43;24.50;58.70
65231;DHT22;51813;40.666;16.602;2022-07-09T07:23:09;24.50;58.70
65231;DHT22;51813;40.666;16.602;2022-07-09T07:25:35;24.50;58.70
65231;DHT22;51813;40.666;16.602;2022-07-09T07:28:01;24.50;58.80
65231;DHT22;51813;40.666;16.602;2022-07-09T07:30:28;24.50;58.80
65231;DHT22;51813;40.666;16.602;2022-07-09T07:33:01;24.50;58.80
65231;DHT22;51813;40.666;16.602;2022-07-09T07:35:26;24.50;58.60
65231;DHT22;51813;40.666;16.602;2022-07-09T07:37:52;24.50;58.10
65231;DHT22;51813;40.666;16.602;2022-07-09T07:40:18;24.40;58.10
65231;DHT22;51813;40.666;16.602;2022-07-09T07:42:44;24.50;58.10
65231;DHT22;51813;40.666;16.602;2022-07-09T07:45:10;24.50;57.90
65231;DHT22;51813;40.666;16.602;2022-07-09T07:47:36;24.50;57.80
65231;DHT22;51813;40.666;16.602;2022-07-09T07:50:02;24.50;57.40
65231;DHT22;51813;40.666;16.602;2022-07-09T07:52:28;24.50;57.40
65231;DHT22;51813;40.666;16.602;2022-07-09T07:54:53;24.40;56.90
65231;DHT22;51813;40.666;16.602;2022-07-09T07:57:19;24.40;57.00
65231;DHT22;51813;40.666;16.602;2022-07-09T07:59:45;24.50;56.60
65231;DHT22;51813;40.666;16.602;2022-07-09T08:02:12;24.50;56.40
65231;DHT22;51813;40.666;16.602;2022-07-09T08:04:38;24.60;55.80
65231;DHT22;51813;40.666;16.602;2022-07-09T08:07:03;24.60;55.40
65231;DHT22;51813;40.666;16.602;2022-07-09T08:09:29;24.60;55.20
65231;DHT22;51813;40.666;16.602;2022-07-09T08:11:55;24.50;55.20
65231;DHT22;51813;40.666;16.602;2022-07-09T08:14:21;24.50;55.20
65231;DHT22;51813;40.666;16.602;2022-07-09T08:16:47;24.50;54.70
65231;DHT22;51813;40.666;16.602;2022-07-09T08:19:12;24.50;54.60
65231;DHT22;51813;40.666;16.602;2022-07-09T08:21:40;24.50;54.40
65231;DHT22;51813;40.666;16.602;2022-07-09T08:24:05;24.60;54.10
65231;DHT22;51813;40.666;16.602;2022-07-09T08:26:31;24.70;53.40
65231;DHT22;51813;40.666;16.602;2022-07-09T08:28:58;24.70;53.50
65231;DHT22;51813;40.666;16.602;2022-07-09T08:31:23;24.80;53.00
65231;DHT22;51813;40.666;16.602;2022-07-09T08:33:50;24.80;53.10
65231;DHT22;51813;40.666;16.602;2022-07-09T08:36:16;24.80;53.00
65231;DHT22;51813;40.666;16.602;2022-07-09T08:38:43;24.70;53.10
65231;DHT22;51813;40.666;16.602;2022-07-09T08:41:09;24.70;52.80
65231;DHT22;51813;40.666;16.602;2022-07-09T08:43:36;24.70;53.00
65231;DHT22;51813;40.666;16.602;2022-07-09T08:46:03;24.70;53.00
65231;DHT22;51813;40.666;16.602;2022-07-09T08:48:35;24.80;52.60
65231;DHT22;51813;40.666;16.602;2022-07-09T08:51:02;24.70;53.00
65231;DHT22;51813;40.666;16.602;2022-07-09T08:53:28;24.70;53.10
65231;DHT22;51813;40.666;16.602;2022-07-09T08:55:55;24.70;52.90
65231;DHT22;51813;40.666;16.602;2022-07-09T08:58:21;24.90;52.70
65231;DHT22;51813;40.666;16.602;2022-07-09T09:00:48;24.90;52.70
65231;DHT22;51813;40.666;16.602;2022-07-09T09:03:14;24.90;52.80
65231;DHT22;51813;40.666;16.602;2022-07-09T09:05:40;24.80;52.90
65231;DHT22;51813;40.666;16.602;2022-07-09T09:08:21;24.80;52.40
65231;DHT22;51813;40.666;16.602;2022-07-09T09:10:48;24.80;51.80
65231;DHT22;51813;40.666;16.602;2022-07-09T09:13:14;24.80;51.70
65231;DHT22;51813;40.666;16.602;2022-07-09T09:15:44;24.80;51.60
65231;DHT22;51813;40.666;16.602;2022-07-09T09:18:10;24.80;52.00
65231;DHT22;51813;40.666;16.602;2022-07-09T09:20:36;24.80;52.40
65231;DHT22;51813;40.666;16.602;2022-07-09T09:23:02;25.00;52.30
65231;DHT22;51813;40.666;16.602;2022-07-09T09:25:30;24.90;52.30
65231;DHT22;51813;40.666;16.602;2022-07-09T09:27:59;24.90;52.90
65231;DHT22;51813;40.666;16.602;2022-07-09T09:30:30;24.90;53.50
65231;DHT22;51813;40.666;16.602;2022-07-09T09:33:00;25.00;53.40
65231;DHT22;51813;40.666;16.602;2022-07-09T09:35:32;25.00;53.50
65231;DHT22;51813;40.666;16.602;2022-07-09T09:37:58;25.00;54.20
65231;DHT22;51813;40.666;16.602;2022-07-09T09:40:25;25.10;53.50
65231;DHT22;51813;40.666;16.602;2022-07-09T09:42:51;25.10;53.20
65231;DHT22;51813;40.666;16.602;2022-07-09T09:45:18;25.10;52.90
65231;DHT22;51813;40.666;16.602;2022-07-09T09:47:49;25.10;53.10
65231;DHT22;51813;40.666;16.602;2022-07-09T09:50:19;25.20;52.60
65231;DHT22;51813;40.666;16.602;2022-07-09T09:52:49;25.30;52.20
65231;DHT22;51813;40.666;16.602;2022-07-09T09:55:17;25.40;51.80
65231;DHT22;51813;40.666;16.602;2022-07-09T09:57:43;25.40;51.30
65231;DHT22;51813;40.666;16.602;2022-07-09T10:00:11;25.30;50.90
65231;DHT22;51813;40.666;16.602;2022-07-09T10:02:39;25.30;51.20
65231;DHT22;51813;40.666;16.602;2022-07-09T10:05:07;25.30;50.60
65231;DHT22;51813;40.666;16.602;2022-07-09T10:07:34;25.30;50.60
65231;DHT22;51813;40.666;16.602;2022-07-09T10:10:00;25.40;50.40
65231;DHT22;51813;40.666;16.602;2022-07-09T10:12:32;25.50;49.30
65231;DHT22;51813;40.666;16.602;2022-07-09T10:14:59;25.60;48.50
65231;DHT22;51813;40.666;16.602;2022-07-09T10:17:26;25.60;48.10
65231;DHT22;51813;40.666;16.602;2022-07-09T10:19:56;25.50;47.60
65231;DHT22;51813;40.666;16.602;2022-07-09T10:22:43;25.50;47.60
65231;DHT22;51813;40.666;16.602;2022-07-09T10:25:13;25.50;47.70
65231;DHT22;51813;40.666;16.602;2022-07-09T10:27:48;25.50;47.80
65231;DHT22;51813;40.666;16.602;2022-07-09T10:35:47;25.60;47.00
65231;DHT22;51813;40.666;16.602;2022-07-09T10:38:14;25.60;46.60
65231;DHT22;51813;40.666;16.602;2022-07-09T10:40:46;25.80;46.40
65231;DHT22;51813;40.666;16.602;2022-07-09T10:43:13;25.80;46.50
65231;DHT22;51813;40.666;16.602;2022-07-09T10:45:40;25.80;46.50
65231;DHT22;51813;40.666;16.602;2022-07-09T10:48:08;25.70;46.80
65231;DHT22;51813;40.666;16.602;2022-07-09T10:50:40;25.80;46.90
65231;DHT22;51813;40.666;16.602;2022-07-09T10:53:06;25.70;47.30
65231;DHT22;51813;40.666;16.602;2022-07-09T10:55:33;25.90;47.20
65231;DHT22;51813;40.666;16.602;2022-07-09T10:57:58;25.80;47.20
65231;DHT22;51813;40.666;16.602;2022-07-09T11:00:30;25.80;47.30
65231;DHT22;51813;40.666;16.602;2022-07-09T11:03:05;25.90;47.20
65231;DHT22;51813;40.666;16.602;2022-07-09T11:05:44;26.10;46.80
65231;DHT22;51813;40.666;16.602;2022-07-09T11:08:10;26.10;46.60
65231;DHT22;51813;40.666;16.602;2022-07-09T11:10:38;26.00;46.50
65231;DHT22;51813;40.666;16.602;2022-07-09T11:13:05;25.90;46.80
65231;DHT22;51813;40.666;16.602;2022-07-09T11:15:33;25.90;47.20
65231;DHT22;51813;40.666;16.602;2022-07-09T11:18:05;26.00;47.30
65231;DHT22;51813;40.666;16.602;2022-07-09T11:20:44;26.00;47.50
65231;DHT22;51813;40.666;16.602;2022-07-09T11:23:11;26.00;46.90
65231;DHT22;51813;40.666;16.602;2022-07-09T11:25:37;26.10;46.00
65231;DHT22;51813;40.666;16.602;2022-07-09T11:28:03;26.10;45.60
65231;DHT22;51813;40.666;16.602;2022-07-09T11:30:30;26.20;45.60
65231;DHT22;51813;40.666;16.602;2022-07-09T11:32:58;26.00;45.90
65231;DHT22;51813;40.666;16.602;2022-07-09T11:35:29;26.10;46.20
65231;DHT22;51813;40.666;16.602;2022-07-09T11:37:57;26.10;46.20
65231;DHT22;51813;40.666;16.602;2022-07-09T11:40:30;26.10;45.80
65231;DHT22;51813;40.666;16.602;2022-07-09T11:42:56;26.00;45.90
65231;DHT22;51813;40.666;16.602;2022-07-09T11:45:22;26.10;46.00
65231;DHT22;51813;40.666;16.602;2022-07-09T11:47:48;26.00;45.90
65231;DHT22;51813;40.666;16.602;2022-07-09T11:50:18;25.90;46.10
65231;DHT22;51813;40.666;16.602;2022-07-09T11:52:49;25.80;46.80
65231;DHT22;51813;40.666;16.602;2022-07-09T11:55:20;25.80;47.00
65231;DHT22;51813;40.666;16.602;2022-07-09T11:57:55;25.70;47.30
65231;DHT22;51813;40.666;16.602;2022-07-09T12:00:28;25.70;47.70
65231;DHT22;51813;40.666;16.602;2022-07-09T12:02:56;25.60;47.70
65231;DHT22;51813;40.666;16.602;2022-07-09T12:05:39;25.60;48.70
65231;DHT22;51813;40.666;16.602;2022-07-09T12:08:06;25.50;47.90
65231;DHT22;51813;40.666;16.602;2022-07-09T12:10:35;25.50;48.50
65231;DHT22;51813;40.666;16.602;2022-07-09T12:13:01;25.50;48.60
65231;DHT22;51813;40.666;16.602;2022-07-09T12:15:28;25.50;48.60
65231;DHT22;51813;40.666;16.602;2022-07-09T12:17:59;25.50;48.30
65231;DHT22;51813;40.666;16.602;2022-07-09T12:20:26;25.50;48.30
65231;DHT22;51813;40.666;16.602;2022-07-09T12:22:52;25.50;48.50
65231;DHT22;51813;40.666;16.602;2022-07-09T12:25:19;25.40;48.80
65231;DHT22;51813;40.666;16.602;2022-07-09T12:27:46;25.40;49.10
65231;DHT22;51813;40.666;16.602;2022-07-09T12:30:12;25.40;49.30
65231;DHT22;51813;40.666;16.602;2022-07-09T12:32:39;25.40;49.20
65231;DHT22;51813;40.666;16.602;2022-07-09T12:35:05;25.40;49.40
65231;DHT22;51813;40.666;16.602;2022-07-09T12:37:31;25.40;49.70
65231;DHT22;51813;40.666;16.602;2022-07-09T12:39:57;25.40;49.80
65231;DHT22;51813;40.666;16.602;2022-07-09T12:42:23;25.40;49.60
65231;DHT22;51813;40.666;16.602;2022-07-09T12:44:48;25.40;49.50
65231;DHT22;51813;40.666;16.602;2022-07-09T12:47:15;25.40;49.60
65231;DHT22;51813;40.666;16.602;2022-07-09T12:49:41;25.40;49.80
65231;DHT22;51813;40.666;16.602;2022-07-09T12:52:07;25.40;50.10
65231;DHT22;51813;40.666;16.602;2022-07-09T12:54:33;25.40;50.30
65231;DHT22;51813;40.666;16.602;2022-07-09T12:56:59;25.40;50.20
65231;DHT22;51813;40.666;16.602;2022-07-09T12:59:25;25.40;50.30
65231;DHT22;51813;40.666;16.602;2022-07-09T13:01:50;25.40;50.40
65231;DHT22;51813;40.666;16.602;2022-07-09T13:04:16;25.40;50.30
65231;DHT22;51813;40.666;16.602;2022-07-09T13:06:42;25.40;50.20
65231;DHT22;51813;40.666;16.602;2022-07-09T13:09:09;25.40;50.30
65231;DHT22;51813;40.666;16.602;2022-07-09T13:11:39;25.40;50.10
65231;DHT22;51813;40.666;16.602;2022-07-09T13:14:05;25.30;50.10
65231;DHT22;51813;40.666;16.602;2022-07-09T13:16:31;25.30;50.20
65231;DHT22;51813;40.666;16.602;2022-07-09T13:18:57;25.40;50.40
65231;DHT22;51813;40.666;16.602;2022-07-09T13:21:23;25.40;50.50
65231;DHT22;51813;40.666;16.602;2022-07-09T13:23:49;25.40;50.40
65231;DHT22;51813;40.666;16.602;2022-07-09T13:26:16;25.30;50.20
65231;DHT22;51813;40.666;16.602;2022-07-09T13:28:42;25.40;50.30
65231;DHT22;51813;40.666;16.602;2022-07-09T13:31:08;25.40;50.20
65231;DHT22;51813;40.666;16.602;2022-07-09T13:33:35;25.40;50.10
65231;DHT22;51813;40.666;16.602;2022-07-09T13:36:03;25.40;50.20
65231;DHT22;51813;40.666;16.602;2022-07-09T13:38:29;25.40;50.30
65231;DHT22;51813;40.666;16.602;2022-07-09T13:40:55;25.40;50.20
65231;DHT22;51813;40.666;16.602;2022-07-09T13:43:22;25.40;49.90
65231;DHT22;51813;40.666;16.602;2022-07-09T13:45:58;25.30;50.40
65231;DHT22;51813;40.666;16.602;2022-07-09T13:48:25;25.30;50.00
65231;DHT22;51813;40.666;16.602;2022-07-09T13:50:52;25.30;50.00
65231;DHT22;51813;40.666;16.602;2022-07-09T13:53:19;25.30;50.10
65231;DHT22;51813;40.666;16.602;2022-07-09T13:55:45;25.40;49.90
65231;DHT22;51813;40.666;16.602;2022-07-09T13:58:12;25.40;49.50
65231;DHT22;51813;40.666;16.602;2022-07-09T14:00:38;25.40;49.40
65231;DHT22;51813;40.666;16.602;2022-07-09T14:03:04;25.40;49.40
65231;DHT22;51813;40.666;16.602;2022-07-09T14:05:29;25.40;49.30
65231;DHT22;51813;40.666;16.602;2022-07-09T14:07:55;25.40;49.20
65231;DHT22;51813;40.666;16.602;2022-07-09T14:10:22;25.30;49.30
65231;DHT22;51813;40.666;16.602;2022-07-09T14:12:48;25.40;49.50
65231;DHT22;51813;40.666;16.602;2022-07-09T14:15:14;25.30;49.40
65231;DHT22;51813;40.666;16.602;2022-07-09T14:17:40;25.40;49.60
65231;DHT22;51813;40.666;16.602;2022-07-09T14:20:06;25.40;49.50
65231;DHT22;51813;40.666;16.602;2022-07-09T14:22:33;25.40;49.60
65231;DHT22;51813;40.666;16.602;2022-07-09T14:24:59;25.40;49.60
65231;DHT22;51813;40.666;16.602;2022-07-09T14:27:25;25.40;49.60
65231;DHT22;51813;40.666;16.602;2022-07-09T14:29:50;25.40;49.70
65231;DHT22;51813;40.666;16.602;2022-07-09T14:32:16;25.40;50.00
65231;DHT22;51813;40.666;16.602;2022-07-09T14:34:42;25.30;50.20
65231;DHT22;51813;40.666;16.602;2022-07-09T14:37:08;25.30;50.00
65231;DHT22;51813;40.666;16.602;2022-07-09T14:39:33;25.40;49.90
65231;DHT22;51813;40.666;16.602;2022-07-09T14:41:59;25.40;49.40
65231;DHT22;51813;40.666;16.602;2022-07-09T14:44:25;25.40;48.90
65231;DHT22;51813;40.666;16.602;2022-07-09T14:46:51;25.40;49.10
65231;DHT22;51813;40.666;16.602;2022-07-09T14:49:18;25.40;48.90
65231;DHT22;51813;40.666;16.602;2022-07-09T14:51:44;25.40;49.10
65231;DHT22;51813;40.666;16.602;2022-07-09T14:54:10;25.40;48.40
65231;DHT22;51813;40.666;16.602;2022-07-09T14:56:36;25.40;48.30
65231;DHT22;51813;40.666;16.602;2022-07-09T14:59:02;25.40;48.60
65231;DHT22;51813;40.666;16.602;2022-07-09T15:01:27;25.40;48.40
65231;DHT22;51813;40.666;16.602;2022-07-09T15:03:53;25.40;48.60
65231;DHT22;51813;40.666;16.602;2022-07-09T15:06:19;25.40;48.50
65231;DHT22;51813;40.666;16.602;2022-07-09T15:08:44;25.40;48.60
65231;DHT22;51813;40.666;16.602;2022-07-09T15:11:11;25.40;48.50
65231;DHT22;51813;40.666;16.602;2022-07-09T15:13:37;25.50;48.40
65231;DHT22;51813;40.666;16.602;2022-07-09T15:16:04;25.50;48.50
65231;DHT22;51813;40.666;16.602;2022-07-09T15:18:30;25.50;48.30